sensor_id;sensor_type;location;lat;lon;timestamp;P1;durP1;ratioP1;P2;durP2;ratioP2
58384;SDS011;44185;47.844;8.966;2024-02-23T00:00:11;0.52;;;0.20;;
58384;SDS011;44185;47.844;8.966;2024-02-23T00:02:37;0.82;;;0.28;;
58384;SDS011;44185;47.844;8.966;2024-02-23T00:05:02;0.20;;;0.20;;
58384;SDS011;44185;47.844;8.966;2024-02-23T00:07:28;0.95;;;0.38;;
58384;SDS011;44185;47.844;8.966;2024-02-23T00:09:54;0.80;;;0.80;;
58384;SDS011;44185;47.844;8.966;2024-02-23T00:12:20;0.38;;;0.38;;
58384;SDS011;44185;47.844;8.966;2024-02-23T00:14:45;1.38;;;0.20;;
58384;SDS011;44185;47.844;8.966;2024-02-23T00:17:12;0.15;;;0.15;;
58384;SDS011;44185;47.844;8.966;2024-02-23T00:19:38;0.10;;;0.10;;
58384;SDS011;44185;47.844;8.966;2024-02-23T00:22:03;0.28;;;0.20;;
58384;SDS011;44185;47.844;8.966;2024-02-23T00:24:28;0.20;;;0.20;;
58384;SDS011;44185;47.844;8.966;2024-02-23T00:26:54;0.13;;;0.13;;
58384;SDS011;44185;47.844;8.966;2024-02-23T00:29:20;0.20;;;0.20;;
58384;SDS011;44185;47.844;8.966;2024-02-23T00:31:45;0.10;;;0.10;;
58384;SDS011;44185;47.844;8.966;2024-02-23T00:34:12;0.10;;;0.10;;
58384;SDS011;44185;47.844;8.966;2024-02-23T00:36:38;0.25;;;0.20;;
58384;SDS011;44185;47.844;8.966;2024-02-23T00:39:04;1.25;;;0.22;;
58384;SDS011;44185;47.844;8.966;2024-02-23T00:41:29;0.20;;;0.20;;
58384;SDS011;44185;47.844;8.966;2024-02-23T00:43:55;0.10;;;0.10;;
58384;SDS011;44185;47.844;8.966;2024-02-23T00:46:20;0.10;;;0.10;;
58384;SDS011;44185;47.844;8.966;2024-02-23T00:48:46;0.10;;;0.10;;
58384;SDS011;44185;47.844;8.966;2024-02-23T00:51:13;0.20;;;0.20;;
58384;SDS011;44185;47.844;8.966;2024-02-23T00:53:38;0.10;;;0.10;;
58384;SDS011;44185;47.844;8.966;2024-02-23T00:56:04;0.10;;;0.10;;
58384;SDS011;44185;47.844;8.966;2024-02-23T00:58:30;0.38;;;0.30;;
58384;SDS011;44185;47.844;8.966;2024-02-23T01:00:56;0.13;;;0.13;;
58384;SDS011;44185;47.844;8.966;2024-02-23T01:03:21;0.20;;;0.20;;
58384;SDS011;44185;47.844;8.966;2024-02-23T01:05:47;0.47;;;0.28;;
58384;SDS011;44185;47.844;8.966;2024-02-23T01:08:14;0.00;;;0.00;;
58384;SDS011;44185;47.844;8.966;2024-02-23T01:10:39;0.17;;;0.17;;
58384;SDS011;44185;47.844;8.966;2024-02-23T01:13:05;0.73;;;0.30;;
58384;SDS011;44185;47.844;8.966;2024-02-23T01:15:30;0.30;;;0.25;;
58384;SDS011;44185;47.844;8.966;2024-02-23T01:17:56;1.42;;;0.43;;
58384;SDS011;44185;47.844;8.966;2024-02-23T01:20:21;0.00;;;0.00;;
58384;SDS011;44185;47.844;8.966;2024-02-23T01:22:47;0.10;;;0.10;;
58384;SDS011;44185;47.844;8.966;2024-02-23T01:25:14;0.22;;;0.22;;
58384;SDS011;44185;47.844;8.966;2024-02-23T01:27:39;0.20;;;0.20;;
58384;SDS011;44185;47.844;8.966;2024-02-23T01:30:05;0.28;;;0.20;;
58384;SDS011;44185;47.844;8.966;2024-02-23T01:32:31;0.10;;;0.10;;
58384;SDS011;44185;47.844;8.966;2024-02-23T01:34:57;1.00;;;0.40;;
58384;SDS011;44185;47.844;8.966;2024-02-23T01:37:22;0.10;;;0.10;;
58384;SDS011;44185;47.844;8.966;2024-02-23T01:39:48;0.05;;;0.05;;
58384;SDS011;44185;47.844;8.966;2024-02-23T01:42:15;0.00;;;0.00;;
58384;SDS011;44185;47.844;8.966;2024-02-23T01:44:40;0.05;;;0.05;;
58384;SDS011;44185;47.844;8.966;2024-02-23T01:47:05;0.70;;;0.10;;
58384;SDS011;44185;47.844;8.966;2024-02-23T01:49:31;0.90;;;0.10;;
58384;SDS011;44185;47.844;8.966;2024-02-23T01:51:58;0.00;;;0.00;;
58384;SDS011;44185;47.844;8.966;2024-02-23T01:54:23;0.15;;;0.15;;
58384;SDS011;44185;47.844;8.966;2024-02-23T01:56:50;0.10;;;0.10;;
58384;SDS011;44185;47.844;8.966;2024-02-23T01:59:17;0.13;;;0.13;;
58384;SDS011;44185;47.844;8.966;2024-02-23T02:01:43;0.10;;;0.10;;
58384;SDS011;44185;47.844;8.966;2024-02-23T02:04:09;0.00;;;0.00;;
58384;SDS011;44185;47.844;8.966;2024-02-23T02:06:35;0.28;;;0.28;;
58384;SDS011;44185;47.844;8.966;2024-02-23T02:09:01;1.25;;;0.13;;
58384;SDS011;44185;47.844;8.966;2024-02-23T02:11:26;0.10;;;0.10;;
58384;SDS011;44185;47.844;8.966;2024-02-23T02:13:52;0.10;;;0.10;;
58384;SDS011;44185;47.844;8.966;2024-02-23T02:16:19;1.10;;;0.32;;
58384;SDS011;44185;47.844;8.966;2024-02-23T02:18:44;0.10;;;0.10;;
58384;SDS011;44185;47.844;8.966;2024-02-23T02:21:10;0.00;;;0.00;;
58384;SDS011;44185;47.844;8.966;2024-02-23T02:23:35;0.00;;;0.00;;
58384;SDS011;44185;47.844;8.966;2024-02-23T02:26:00;1.65;;;0.10;;
58384;SDS011;44185;47.844;8.966;2024-02-23T02:28:26;0.10;;;0.10;;
58384;SDS011;44185;47.844;8.966;2024-02-23T02:30:52;0.90;;;0.10;;
58384;SDS011;44185;47.844;8.966;2024-02-23T02:33:19;0.35;;;0.10;;
58384;SDS011;44185;47.844;8.966;2024-02-23T02:35:44;0.10;;;0.10;;
58384;SDS011;44185;47.844;8.966;2024-02-23T02:38:10;0.10;;;0.10;;
58384;SDS011;44185;47.844;8.966;2024-02-23T02:40:35;0.57;;;0.10;;
58384;SDS011;44185;47.844;8.966;2024-02-23T02:43:01;0.95;;;0.15;;
58384;SDS011;44185;47.844;8.966;2024-02-23T02:45:26;0.35;;;0.13;;
58384;SDS011;44185;47.844;8.966;2024-02-23T02:47:52;0.57;;;0.40;;
58384;SDS011;44185;47.844;8.966;2024-02-23T02:50:18;1.23;;;0.52;;
58384;SDS011;44185;47.844;8.966;2024-02-23T02:52:44;0.17;;;0.17;;
58384;SDS011;44185;47.844;8.966;2024-02-23T02:55:09;0.10;;;0.10;;
58384;SDS011;44185;47.844;8.966;2024-02-23T02:57:35;0.20;;;0.20;;
58384;SDS011;44185;47.844;8.966;2024-02-23T03:00:00;0.10;;;0.10;;
58384;SDS011;44185;47.844;8.966;2024-02-23T03:02:26;0.10;;;0.10;;
58384;SDS011;44185;47.844;8.966;2024-02-23T03:04:51;0.10;;;0.10;;
58384;SDS011;44185;47.844;8.966;2024-02-23T03:07:18;0.10;;;0.10;;
58384;SDS011;44185;47.844;8.966;2024-02-23T03:09:44;0.00;;;0.00;;
58384;SDS011;44185;47.844;8.966;2024-02-23T03:12:10;0.13;;;0.13;;
58384;SDS011;44185;47.844;8.966;2024-02-23T03:14:35;0.10;;;0.10;;
58384;SDS011;44185;47.844;8.966;2024-02-23T03:17:01;0.25;;;0.22;;
58384;SDS011;44185;47.844;8.966;2024-02-23T03:19:26;0.00;;;0.00;;
58384;SDS011;44185;47.844;8.966;2024-02-23T03:21:52;0.10;;;0.10;;
58384;SDS011;44185;47.844;8.966;2024-02-23T03:24:19;0.10;;;0.10;;
58384;SDS011;44185;47.844;8.966;2024-02-23T03:26:44;0.10;;;0.10;;
58384;SDS011;44185;47.844;8.966;2024-02-23T03:29:10;0.00;;;0.00;;
58384;SDS011;44185;47.844;8.966;2024-02-23T03:31:35;0.35;;;0.10;;
58384;SDS011;44185;47.844;8.966;2024-02-23T03:34:01;0.20;;;0.20;;
58384;SDS011;44185;47.844;8.966;2024-02-23T03:36:27;0.47;;;0.20;;
58384;SDS011;44185;47.844;8.966;2024-02-23T03:38:52;0.10;;;0.10;;
58384;SDS011;44185;47.844;8.966;2024-02-23T03:41:19;0.45;;;0.30;;
58384;SDS011;44185;47.844;8.966;2024-02-23T03:43:45;0.10;;;0.10;;
58384;SDS011;44185;47.844;8.966;2024-02-23T03:46:10;1.52;;;0.30;;
58384;SDS011;44185;47.844;8.966;2024-02-23T03:48:35;0.10;;;0.10;;
58384;SDS011;44185;47.844;8.966;2024-02-23T03:51:02;0.57;;;0.20;;
58384;SDS011;44185;47.844;8.966;2024-02-23T03:53:28;0.20;;;0.20;;
58384;SDS011;44185;47.844;8.966;2024-02-23T03:55:53;0.28;;;0.22;;
58384;SDS011;44185;47.844;8.966;2024-02-23T03:58:20;0.22;;;0.22;;
58384;SDS011;44185;47.844;8.966;2024-02-23T04:00:46;0.40;;;0.40;;
58384;SDS011;44185;47.844;8.966;2024-02-23T04:03:11;0.75;;;0.30;;
58384;SDS011;44185;47.844;8.966;2024-02-23T04:05:36;0.35;;;0.35;;
58384;SDS011;44185;47.844;8.966;2024-02-23T04:08:02;0.40;;;0.28;;
58384;SDS011;44185;47.844;8.966;2024-02-23T04:10:28;0.40;;;0.40;;
58384;SDS011;44185;47.844;8.966;2024-02-23T04:12:53;1.00;;;0.43;;
58384;SDS011;44185;47.844;8.966;2024-02-23T04:15:20;0.30;;;0.30;;
58384;SDS011;44185;47.844;8.966;2024-02-23T04:17:46;1.38;;;0.20;;
58384;SDS011;44185;47.844;8.966;2024-02-23T04:20:11;0.65;;;0.30;;
58384;SDS011;44185;47.844;8.966;2024-02-23T04:22:37;0.15;;;0.15;;
58384;SDS011;44185;47.844;8.966;2024-02-23T04:25:02;0.95;;;0.30;;
58384;SDS011;44185;47.844;8.966;2024-02-23T04:27:28;0.90;;;0.35;;
58384;SDS011;44185;47.844;8.966;2024-02-23T04:29:54;0.43;;;0.22;;
58384;SDS011;44185;47.844;8.966;2024-02-23T04:32:20;0.43;;;0.20;;
58384;SDS011;44185;47.844;8.966;2024-02-23T04:34:46;1.70;;;0.40;;
58384;SDS011;44185;47.844;8.966;2024-02-23T04:37:11;1.08;;;0.38;;
58384;SDS011;44185;47.844;8.966;2024-02-23T04:39:37;0.63;;;0.30;;
58384;SDS011;44185;47.844;8.966;2024-02-23T04:42:02;0.77;;;0.35;;
58384;SDS011;44185;47.844;8.966;2024-02-23T04:44:28;1.55;;;0.28;;
58384;SDS011;44185;47.844;8.966;2024-02-23T04:46:53;0.30;;;0.30;;
58384;SDS011;44185;47.844;8.966;2024-02-23T04:49:20;0.15;;;0.15;;
58384;SDS011;44185;47.844;8.966;2024-02-23T04:51:46;0.60;;;0.35;;
58384;SDS011;44185;47.844;8.966;2024-02-23T04:54:11;2.55;;;0.40;;
58384;SDS011;44185;47.844;8.966;2024-02-23T04:56:36;0.38;;;0.38;;
58384;SDS011;44185;47.844;8.966;2024-02-23T04:59:02;0.10;;;0.10;;
58384;SDS011;44185;47.844;8.966;2024-02-23T05:01:27;1.73;;;0.20;;
58384;SDS011;44185;47.844;8.966;2024-02-23T05:03:53;2.05;;;0.45;;
58384;SDS011;44185;47.844;8.966;2024-02-23T05:06:20;0.30;;;0.30;;
58384;SDS011;44185;47.844;8.966;2024-02-23T05:08:45;0.20;;;0.17;;
58384;SDS011;44185;47.844;8.966;2024-02-23T05:11:10;2.38;;;0.68;;
58384;SDS011;44185;47.844;8.966;2024-02-23T05:13:39;2.35;;;0.50;;
58384;SDS011;44185;47.844;8.966;2024-02-23T05:16:04;0.20;;;0.20;;
58384;SDS011;44185;47.844;8.966;2024-02-23T05:18:30;0.35;;;0.35;;
58384;SDS011;44185;47.844;8.966;2024-02-23T05:20:55;1.13;;;0.43;;
58384;SDS011;44185;47.844;8.966;2024-02-23T05:23:22;0.80;;;0.30;;
58384;SDS011;44185;47.844;8.966;2024-02-23T05:25:48;0.30;;;0.30;;
58384;SDS011;44185;47.844;8.966;2024-02-23T05:28:13;3.72;;;0.70;;
58384;SDS011;44185;47.844;8.966;2024-02-23T05:30:38;0.55;;;0.40;;
58384;SDS011;44185;47.844;8.966;2024-02-23T05:33:04;2.10;;;0.52;;
58384;SDS011;44185;47.844;8.966;2024-02-23T05:35:29;0.15;;;0.15;;
58384;SDS011;44185;47.844;8.966;2024-02-23T05:37:55;2.50;;;0.40;;
58384;SDS011;44185;47.844;8.966;2024-02-23T05:40:22;0.95;;;0.60;;
58384;SDS011;44185;47.844;8.966;2024-02-23T05:42:47;2.70;;;0.90;;
58384;SDS011;44185;47.844;8.966;2024-02-23T05:45:12;1.20;;;0.63;;
58384;SDS011;44185;47.844;8.966;2024-02-23T05:47:38;0.80;;;0.40;;
58384;SDS011;44185;47.844;8.966;2024-02-23T05:50:04;0.57;;;0.57;;
58384;SDS011;44185;47.844;8.966;2024-02-23T05:52:30;0.95;;;0.60;;
58384;SDS011;44185;47.844;8.966;2024-02-23T05:54:56;0.57;;;0.50;;
58384;SDS011;44185;47.844;8.966;2024-02-23T05:57:23;0.93;;;0.90;;
58384;SDS011;44185;47.844;8.966;2024-02-23T05:59:48;3.10;;;1.10;;
58384;SDS011;44185;47.844;8.966;2024-02-23T06:02:14;4.68;;;0.85;;
58384;SDS011;44185;47.844;8.966;2024-02-23T06:04:39;1.65;;;0.60;;
58384;SDS011;44185;47.844;8.966;2024-02-23T06:07:05;1.67;;;0.80;;
58384;SDS011;44185;47.844;8.966;2024-02-23T06:09:31;4.60;;;1.27;;
58384;SDS011;44185;47.844;8.966;2024-02-23T06:11:56;1.45;;;0.90;;
58384;SDS011;44185;47.844;8.966;2024-02-23T06:14:23;1.42;;;0.85;;
58384;SDS011;44185;47.844;8.966;2024-02-23T06:16:48;1.75;;;0.95;;
58384;SDS011;44185;47.844;8.966;2024-02-23T06:19:14;2.42;;;1.00;;
58384;SDS011;44185;47.844;8.966;2024-02-23T06:21:40;2.58;;;1.20;;
58384;SDS011;44185;47.844;8.966;2024-02-23T06:24:05;2.08;;;0.82;;
58384;SDS011;44185;47.844;8.966;2024-02-23T06:26:31;2.08;;;0.73;;
58384;SDS011;44185;47.844;8.966;2024-02-23T06:28:56;5.57;;;1.20;;
58384;SDS011;44185;47.844;8.966;2024-02-23T06:31:23;3.25;;;1.00;;
58384;SDS011;44185;47.844;8.966;2024-02-23T06:33:48;2.80;;;0.70;;
58384;SDS011;44185;47.844;8.966;2024-02-23T06:36:14;0.68;;;0.68;;
58384;SDS011;44185;47.844;8.966;2024-02-23T06:38:39;3.53;;;1.25;;
58384;SDS011;44185;47.844;8.966;2024-02-23T06:41:05;0.93;;;0.80;;
58384;SDS011;44185;47.844;8.966;2024-02-23T06:43:30;19.15;;;4.85;;
58384;SDS011;44185;47.844;8.966;2024-02-23T06:45:56;2.17;;;1.30;;
58384;SDS011;44185;47.844;8.966;2024-02-23T06:48:23;2.33;;;1.65;;
58384;SDS011;44185;47.844;8.966;2024-02-23T06:50:48;2.33;;;0.95;;
58384;SDS011;44185;47.844;8.966;2024-02-23T06:53:13;1.85;;;1.02;;
58384;SDS011;44185;47.844;8.966;2024-02-23T06:55:39;1.70;;;1.48;;
58384;SDS011;44185;47.844;8.966;2024-02-23T06:58:05;2.65;;;1.17;;
58384;SDS011;44185;47.844;8.966;2024-02-23T07:00:30;3.78;;;0.95;;
58384;SDS011;44185;47.844;8.966;2024-02-23T07:02:56;3.28;;;1.05;;
58384;SDS011;44185;47.844;8.966;2024-02-23T07:05:22;0.90;;;0.90;;
58384;SDS011;44185;47.844;8.966;2024-02-23T07:07:48;1.85;;;0.40;;
58384;SDS011;44185;47.844;8.966;2024-02-23T07:10:13;2.65;;;1.00;;
58384;SDS011;44185;47.844;8.966;2024-02-23T07:12:39;0.80;;;0.60;;
58384;SDS011;44185;47.844;8.966;2024-02-23T07:15:05;2.80;;;0.90;;
58384;SDS011;44185;47.844;8.966;2024-02-23T07:17:31;1.33;;;0.80;;
58384;SDS011;44185;47.844;8.966;2024-02-23T07:19:56;4.93;;;1.95;;
58384;SDS011;44185;47.844;8.966;2024-02-23T07:22:23;2.63;;;1.13;;
58384;SDS011;44185;47.844;8.966;2024-02-23T07:24:49;4.90;;;1.55;;
58384;SDS011;44185;47.844;8.966;2024-02-23T07:27:14;5.30;;;0.90;;
58384;SDS011;44185;47.844;8.966;2024-02-23T07:29:40;5.03;;;0.98;;
58384;SDS011;44185;47.844;8.966;2024-02-23T07:32:05;0.70;;;0.70;;
58384;SDS011;44185;47.844;8.966;2024-02-23T07:34:31;0.32;;;0.32;;
58384;SDS011;44185;47.844;8.966;2024-02-23T07:36:56;2.03;;;0.40;;
58384;SDS011;44185;47.844;8.966;2024-02-23T07:39:23;1.90;;;0.80;;
58384;SDS011;44185;47.844;8.966;2024-02-23T07:41:49;2.13;;;0.65;;
58384;SDS011;44185;47.844;8.966;2024-02-23T07:44:14;0.47;;;0.47;;
58384;SDS011;44185;47.844;8.966;2024-02-23T07:46:40;3.25;;;0.88;;
58384;SDS011;44185;47.844;8.966;2024-02-23T07:49:05;0.52;;;0.40;;
58384;SDS011;44185;47.844;8.966;2024-02-23T07:51:30;5.07;;;0.75;;
58384;SDS011;44185;47.844;8.966;2024-02-23T07:53:56;1.08;;;0.63;;
58384;SDS011;44185;47.844;8.966;2024-02-23T07:56:23;0.98;;;0.55;;
58384;SDS011;44185;47.844;8.966;2024-02-23T07:58:48;2.17;;;0.80;;
58384;SDS011;44185;47.844;8.966;2024-02-23T08:01:14;0.77;;;0.77;;
58384;SDS011;44185;47.844;8.966;2024-02-23T08:03:39;2.88;;;0.73;;
58384;SDS011;44185;47.844;8.966;2024-02-23T08:06:05;2.70;;;0.68;;
58384;SDS011;44185;47.844;8.966;2024-02-23T08:08:30;3.53;;;1.25;;
58384;SDS011;44185;47.844;8.966;2024-02-23T08:10:56;2.42;;;0.95;;
58384;SDS011;44185;47.844;8.966;2024-02-23T08:13:23;3.28;;;0.77;;
58384;SDS011;44185;47.844;8.966;2024-02-23T08:15:48;1.83;;;0.77;;
58384;SDS011;44185;47.844;8.966;2024-02-23T08:18:13;3.95;;;1.33;;
58384;SDS011;44185;47.844;8.966;2024-02-23T08:20:39;2.58;;;0.65;;
58384;SDS011;44185;47.844;8.966;2024-02-23T08:23:05;1.75;;;0.88;;
58384;SDS011;44185;47.844;8.966;2024-02-23T08:25:30;3.78;;;1.00;;
58384;SDS011;44185;47.844;8.966;2024-02-23T08:27:56;1.23;;;0.47;;
58384;SDS011;44185;47.844;8.966;2024-02-23T08:30:22;2.85;;;0.90;;
58384;SDS011;44185;47.844;8.966;2024-02-23T08:32:48;4.53;;;0.98;;
58384;SDS011;44185;47.844;8.966;2024-02-23T08:35:13;2.67;;;1.08;;
58384;SDS011;44185;47.844;8.966;2024-02-23T08:37:39;3.85;;;0.95;;
58384;SDS011;44185;47.844;8.966;2024-02-23T08:40:05;0.88;;;0.60;;
58384;SDS011;44185;47.844;8.966;2024-02-23T08:42:32;2.10;;;0.82;;
58384;SDS011;44185;47.844;8.966;2024-02-23T08:44:57;2.85;;;1.08;;
58384;SDS011;44185;47.844;8.966;2024-02-23T08:47:24;1.95;;;0.70;;
58384;SDS011;44185;47.844;8.966;2024-02-23T08:49:50;2.72;;;1.33;;
58384;SDS011;44185;47.844;8.966;2024-02-23T08:52:15;4.03;;;1.30;;
58384;SDS011;44185;47.844;8.966;2024-02-23T08:54:41;1.45;;;1.00;;
58384;SDS011;44185;47.844;8.966;2024-02-23T08:57:06;1.85;;;0.80;;
58384;SDS011;44185;47.844;8.966;2024-02-23T08:59:31;6.93;;;1.83;;
58384;SDS011;44185;47.844;8.966;2024-02-23T09:01:57;6.72;;;2.20;;
58384;SDS011;44185;47.844;8.966;2024-02-23T09:04:24;3.13;;;1.40;;
58384;SDS011;44185;47.844;8.966;2024-02-23T09:06:50;4.05;;;1.65;;
58384;SDS011;44185;47.844;8.966;2024-02-23T09:09:15;3.67;;;0.68;;
58384;SDS011;44185;47.844;8.966;2024-02-23T09:11:41;4.32;;;0.70;;
58384;SDS011;44185;47.844;8.966;2024-02-23T09:14:06;2.22;;;1.00;;
58384;SDS011;44185;47.844;8.966;2024-02-23T09:16:31;2.95;;;1.38;;
58384;SDS011;44185;47.844;8.966;2024-02-23T09:18:57;2.00;;;1.02;;
58384;SDS011;44185;47.844;8.966;2024-02-23T09:21:24;5.07;;;0.77;;
58384;SDS011;44185;47.844;8.966;2024-02-23T09:23:50;2.35;;;0.88;;
58384;SDS011;44185;47.844;8.966;2024-02-23T09:26:15;2.47;;;0.88;;
58384;SDS011;44185;47.844;8.966;2024-02-23T09:28:41;3.70;;;1.05;;
58384;SDS011;44185;47.844;8.966;2024-02-23T09:31:06;3.70;;;0.90;;
58384;SDS011;44185;47.844;8.966;2024-02-23T09:33:31;2.08;;;0.70;;
58384;SDS011;44185;47.844;8.966;2024-02-23T09:35:57;3.30;;;1.08;;
58384;SDS011;44185;47.844;8.966;2024-02-23T09:38:24;2.33;;;1.23;;
58384;SDS011;44185;47.844;8.966;2024-02-23T09:40:50;3.65;;;1.35;;
58384;SDS011;44185;47.844;8.966;2024-02-23T09:43:15;4.68;;;1.27;;
58384;SDS011;44185;47.844;8.966;2024-02-23T09:45:42;1.67;;;1.00;;
58384;SDS011;44185;47.844;8.966;2024-02-23T09:48:08;3.80;;;1.17;;
58384;SDS011;44185;47.844;8.966;2024-02-23T09:50:35;4.47;;;1.33;;
58384;SDS011;44185;47.844;8.966;2024-02-23T09:53:02;2.88;;;1.23;;
58384;SDS011;44185;47.844;8.966;2024-02-23T09:55:32;3.38;;;1.55;;
58384;SDS011;44185;47.844;8.966;2024-02-23T09:57:57;3.05;;;1.08;;
58384;SDS011;44185;47.844;8.966;2024-02-23T10:00:24;1.45;;;1.20;;
58384;SDS011;44185;47.844;8.966;2024-02-23T10:02:49;4.72;;;1.17;;
58384;SDS011;44185;47.844;8.966;2024-02-23T10:05:15;1.90;;;1.10;;
58384;SDS011;44185;47.844;8.966;2024-02-23T10:07:42;3.15;;;1.33;;
58384;SDS011;44185;47.844;8.966;2024-02-23T10:10:07;2.25;;;1.10;;
58384;SDS011;44185;47.844;8.966;2024-02-23T10:12:35;2.58;;;0.80;;
58384;SDS011;44185;47.844;8.966;2024-02-23T10:15:00;5.57;;;1.15;;
58384;SDS011;44185;47.844;8.966;2024-02-23T10:17:26;4.47;;;1.70;;
58384;SDS011;44185;47.844;8.966;2024-02-23T10:19:51;5.63;;;1.35;;
58384;SDS011;44185;47.844;8.966;2024-02-23T10:22:17;2.30;;;1.27;;
58384;SDS011;44185;47.844;8.966;2024-02-23T10:24:42;1.33;;;1.23;;
58384;SDS011;44185;47.844;8.966;2024-02-23T10:27:08;1.48;;;1.17;;
58384;SDS011;44185;47.844;8.966;2024-02-23T10:29:34;1.30;;;0.90;;
58384;SDS011;44185;47.844;8.966;2024-02-23T10:32:00;2.95;;;1.23;;
58384;SDS011;44185;47.844;8.966;2024-02-23T10:34:26;1.90;;;1.13;;
58384;SDS011;44185;47.844;8.966;2024-02-23T10:36:53;4.05;;;1.02;;
58384;SDS011;44185;47.844;8.966;2024-02-23T10:39:20;1.10;;;0.85;;
58384;SDS011;44185;47.844;8.966;2024-02-23T10:41:51;3.05;;;0.80;;
58384;SDS011;44185;47.844;8.966;2024-02-23T10:44:21;1.90;;;1.08;;
58384;SDS011;44185;47.844;8.966;2024-02-23T10:46:48;1.52;;;1.30;;
58384;SDS011;44185;47.844;8.966;2024-02-23T10:49:15;2.92;;;0.90;;
58384;SDS011;44185;47.844;8.966;2024-02-23T10:51:42;1.30;;;0.85;;
58384;SDS011;44185;47.844;8.966;2024-02-23T10:54:09;2.35;;;1.00;;
58384;SDS011;44185;47.844;8.966;2024-02-23T10:56:36;4.30;;;1.23;;
58384;SDS011;44185;47.844;8.966;2024-02-23T10:59:01;2.10;;;0.77;;
58384;SDS011;44185;47.844;8.966;2024-02-23T11:01:27;1.40;;;0.70;;
58384;SDS011;44185;47.844;8.966;2024-02-23T11:03:59;0.57;;;0.57;;
58384;SDS011;44185;47.844;8.966;2024-02-23T11:06:27;4.00;;;0.80;;
58384;SDS011;44185;47.844;8.966;2024-02-23T11:08:52;1.60;;;0.75;;
58384;SDS011;44185;47.844;8.966;2024-02-23T11:11:18;2.60;;;0.75;;
58384;SDS011;44185;47.844;8.966;2024-02-23T11:13:44;3.55;;;1.08;;
58384;SDS011;44185;47.844;8.966;2024-02-23T11:16:10;2.75;;;0.47;;
58384;SDS011;44185;47.844;8.966;2024-02-23T11:18:36;1.00;;;0.70;;
58384;SDS011;44185;47.844;8.966;2024-02-23T11:21:05;4.15;;;0.77;;
58384;SDS011;44185;47.844;8.966;2024-02-23T11:23:39;4.70;;;1.05;;
58384;SDS011;44185;47.844;8.966;2024-02-23T11:26:06;0.90;;;0.68;;
58384;SDS011;44185;47.844;8.966;2024-02-23T11:28:31;8.02;;;1.00;;
58384;SDS011;44185;47.844;8.966;2024-02-23T11:30:57;3.15;;;0.77;;
58384;SDS011;44185;47.844;8.966;2024-02-23T11:33:25;2.92;;;0.95;;
58384;SDS011;44185;47.844;8.966;2024-02-23T11:35:51;1.77;;;0.93;;
58384;SDS011;44185;47.844;8.966;2024-02-23T11:38:18;3.40;;;0.80;;
58384;SDS011;44185;47.844;8.966;2024-02-23T11:40:45;2.65;;;1.02;;
58384;SDS011;44185;47.844;8.966;2024-02-23T11:43:11;3.45;;;0.80;;
58384;SDS011;44185;47.844;8.966;2024-02-23T11:45:37;1.35;;;0.60;;
58384;SDS011;44185;47.844;8.966;2024-02-23T11:48:02;0.63;;;0.60;;
58384;SDS011;44185;47.844;8.966;2024-02-23T11:50:30;1.13;;;0.80;;
58384;SDS011;44185;47.844;8.966;2024-02-23T11:52:56;2.75;;;1.10;;
58384;SDS011;44185;47.844;8.966;2024-02-23T11:55:23;1.73;;;0.60;;
58384;SDS011;44185;47.844;8.966;2024-02-23T11:57:49;3.58;;;1.27;;
58384;SDS011;44185;47.844;8.966;2024-02-23T12:00:15;5.45;;;1.10;;
58384;SDS011;44185;47.844;8.966;2024-02-23T12:02:41;0.65;;;0.50;;
58384;SDS011;44185;47.844;8.966;2024-02-23T12:05:08;3.63;;;0.77;;
58384;SDS011;44185;47.844;8.966;2024-02-23T12:07:33;3.90;;;1.05;;
58384;SDS011;44185;47.844;8.966;2024-02-23T12:09:59;1.42;;;0.63;;
58384;SDS011;44185;47.844;8.966;2024-02-23T12:12:26;0.98;;;0.65;;
58384;SDS011;44185;47.844;8.966;2024-02-23T12:14:52;4.90;;;1.33;;
58384;SDS011;44185;47.844;8.966;2024-02-23T12:17:17;3.92;;;1.13;;
58384;SDS011;44185;47.844;8.966;2024-02-23T12:19:43;2.65;;;0.88;;
58384;SDS011;44185;47.844;8.966;2024-02-23T12:22:09;4.05;;;0.65;;
58384;SDS011;44185;47.844;8.966;2024-02-23T12:24:35;3.10;;;0.60;;
58384;SDS011;44185;47.844;8.966;2024-02-23T12:27:01;0.60;;;0.60;;
58384;SDS011;44185;47.844;8.966;2024-02-23T12:29:27;0.88;;;0.52;;
58384;SDS011;44185;47.844;8.966;2024-02-23T12:32:02;3.13;;;1.02;;
58384;SDS011;44185;47.844;8.966;2024-02-23T12:34:28;2.17;;;0.75;;
58384;SDS011;44185;47.844;8.966;2024-02-23T12:36:53;4.00;;;1.02;;
58384;SDS011;44185;47.844;8.966;2024-02-23T12:39:20;1.02;;;0.50;;
58384;SDS011;44185;47.844;8.966;2024-02-23T12:41:45;1.45;;;0.68;;
58384;SDS011;44185;47.844;8.966;2024-02-23T12:44:11;3.20;;;0.63;;
58384;SDS011;44185;47.844;8.966;2024-02-23T12:46:38;2.90;;;0.70;;
58384;SDS011;44185;47.844;8.966;2024-02-23T12:49:03;0.68;;;0.60;;
58384;SDS011;44185;47.844;8.966;2024-02-23T12:51:28;0.90;;;0.20;;
58384;SDS011;44185;47.844;8.966;2024-02-23T12:53:54;2.70;;;0.80;;
58384;SDS011;44185;47.844;8.966;2024-02-23T12:56:20;2.63;;;0.50;;
58384;SDS011;44185;47.844;8.966;2024-02-23T12:58:46;2.40;;;0.70;;
58384;SDS011;44185;47.844;8.966;2024-02-23T13:01:11;4.25;;;1.05;;
58384;SDS011;44185;47.844;8.966;2024-02-23T13:03:38;0.90;;;0.70;;
58384;SDS011;44185;47.844;8.966;2024-02-23T13:06:04;1.70;;;0.60;;
58384;SDS011;44185;47.844;8.966;2024-02-23T13:08:30;3.63;;;0.73;;
58384;SDS011;44185;47.844;8.966;2024-02-23T13:10:56;0.50;;;0.50;;
58384;SDS011;44185;47.844;8.966;2024-02-23T13:13:21;1.42;;;0.50;;
58384;SDS011;44185;47.844;8.966;2024-02-23T13:15:47;1.15;;;0.65;;
58384;SDS011;44185;47.844;8.966;2024-02-23T13:18:14;6.43;;;1.02;;
58384;SDS011;44185;47.844;8.966;2024-02-23T13:20:42;0.63;;;0.45;;
58384;SDS011;44185;47.844;8.966;2024-02-23T13:23:07;0.65;;;0.60;;
58384;SDS011;44185;47.844;8.966;2024-02-23T13:25:33;2.10;;;0.70;;
58384;SDS011;44185;47.844;8.966;2024-02-23T13:27:58;2.92;;;0.68;;
58384;SDS011;44185;47.844;8.966;2024-02-23T13:30:24;2.45;;;0.57;;
58384;SDS011;44185;47.844;8.966;2024-02-23T13:32:50;2.83;;;1.20;;
58384;SDS011;44185;47.844;8.966;2024-02-23T13:35:15;1.05;;;0.50;;
58384;SDS011;44185;47.844;8.966;2024-02-23T13:37:43;2.83;;;0.70;;
58384;SDS011;44185;47.844;8.966;2024-02-23T13:40:08;3.20;;;0.90;;
58384;SDS011;44185;47.844;8.966;2024-02-23T13:42:35;1.88;;;0.47;;
58384;SDS011;44185;47.844;8.966;2024-02-23T13:45:01;2.00;;;0.73;;
58384;SDS011;44185;47.844;8.966;2024-02-23T13:47:26;2.55;;;1.00;;
58384;SDS011;44185;47.844;8.966;2024-02-23T13:49:52;3.72;;;0.80;;
58384;SDS011;44185;47.844;8.966;2024-02-23T13:52:17;1.67;;;0.68;;
58384;SDS011;44185;47.844;8.966;2024-02-23T13:54:44;3.55;;;0.82;;
58384;SDS011;44185;47.844;8.966;2024-02-23T13:57:10;4.05;;;0.98;;
58384;SDS011;44185;47.844;8.966;2024-02-23T13:59:35;1.35;;;0.70;;
58384;SDS011;44185;47.844;8.966;2024-02-23T14:02:00;0.82;;;0.82;;
58384;SDS011;44185;47.844;8.966;2024-02-23T14:04:26;2.75;;;0.90;;
58384;SDS011;44185;47.844;8.966;2024-02-23T14:06:51;0.57;;;0.50;;
58384;SDS011;44185;47.844;8.966;2024-02-23T14:09:17;3.55;;;0.90;;
58384;SDS011;44185;47.844;8.966;2024-02-23T14:11:43;2.60;;;1.10;;
58384;SDS011;44185;47.844;8.966;2024-02-23T14:14:09;1.23;;;0.80;;
58384;SDS011;44185;47.844;8.966;2024-02-23T14:16:35;3.63;;;1.05;;
58384;SDS011;44185;47.844;8.966;2024-02-23T14:19:00;2.40;;;0.98;;
58384;SDS011;44185;47.844;8.966;2024-02-23T14:21:26;3.90;;;1.20;;
58384;SDS011;44185;47.844;8.966;2024-02-23T14:23:51;2.95;;;1.00;;
58384;SDS011;44185;47.844;8.966;2024-02-23T14:26:17;1.45;;;0.85;;
58384;SDS011;44185;47.844;8.966;2024-02-23T14:28:43;1.67;;;0.90;;
58384;SDS011;44185;47.844;8.966;2024-02-23T14:31:09;1.08;;;0.60;;
58384;SDS011;44185;47.844;8.966;2024-02-23T14:33:35;3.90;;;0.80;;
58384;SDS011;44185;47.844;8.966;2024-02-23T14:36:00;2.13;;;0.82;;
58384;SDS011;44185;47.844;8.966;2024-02-23T14:38:26;0.65;;;0.50;;